Time;durP1;ratioP1;P1;durP2;ratioP2;P2;SDS_P1;SDS_P2;PMS_P1;PMS_P2;Temp;Humidity;BMP_temperature;BMP_pressure;BME280_temperature;BME280_humidity;BME280_pressure;Samples;Min_cycle;Max_cycle;Signal;HPM_P1;HPM_P2
2022/05/19 00:01:41;;;;;;;25.20;16.17;;;;;;;;;;5027988;28;20124;-87
2022/05/19 00:04:07;;;;;;;39.22;22.83;;;;;;;;;;5070529;28;20136;-86
2022/05/19 00:06:33;;;;;;;37.65;21.92;;;;;;;;;;5045890;28;20442;-85
2022/05/19 00:08:59;;;;;;;25.30;15.88;;;;;;;;;;5027146;28;20048;-85
2022/05/19 00:11:28;;;;;;;29.00;16.92;;;;;;;;;;5029827;28;20037;-85
2022/05/19 00:13:54;;;;;;;25.00;16.02;;;;;;;;;;5027291;28;20116;-86
2022/05/19 00:16:20;;;;;;;33.85;20.08;;;;;;;;;;5029585;28;20132;-86
2022/05/19 00:18:46;;;;;;;36.45;22.45;;;;;;;;;;5044200;28;20036;-85
2022/05/19 00:21:12;;;;;;;39.38;22.08;;;;;;;;;;5046182;28;20040;-87
2022/05/19 00:23:38;;;;;;;30.58;20.27;;;;;;;;;;5029585;28;20048;-87
2022/05/19 00:26:04;;;;;;;41.58;23.27;;;;;;;;;;5044686;28;20045;-88
2022/05/19 00:28:30;;;;;;;33.65;21.33;;;;;;;;;;5046359;28;20036;-88
2022/05/19 00:30:56;;;;;;;43.30;24.80;;;;;;;;;;5030589;28;20102;-87
2022/05/19 00:33:22;;;;;;;47.75;26.50;;;;;;;;;;5026415;28;20037;-87
2022/05/19 00:35:48;;;;;;;43.53;26.25;;;;;;;;;;5046541;28;20036;-87
2022/05/19 00:38:14;;;;;;;43.15;25.63;;;;;;;;;;5030418;28;20424;-87
2022/05/19 00:40:45;;;;;;;45.38;27.33;;;;;;;;;;5028453;28;20503;-87
2022/05/19 00:43:11;;;;;;;45.25;27.98;;;;;;;;;;5045626;28;20488;-87
2022/05/19 00:45:42;;;;;;;54.13;29.88;;;;;;;;;;5030932;28;20040;-86
2022/05/19 00:48:30;;;;;;;53.03;30.30;;;;;;;;;;5029067;28;20492;-87
2022/05/19 00:50:59;;;;;;;54.38;30.15;;;;;;;;;;5066630;28;20036;-85
2022/05/19 00:53:29;;;;;;;52.55;29.65;;;;;;;;;;5045878;28;20033;-85
2022/05/19 00:55:55;;;;;;;50.13;29.25;;;;;;;;;;5028052;28;20684;-86
2022/05/19 00:58:28;;;;;;;49.83;29.15;;;;;;;;;;5064388;28;20483;-88
2022/05/19 01:00:55;;;;;;;54.88;29.88;;;;;;;;;;5028763;28;20416;-87
2022/05/19 01:03:22;;;;;;;52.25;31.17;;;;;;;;;;5048090;28;20037;-89
2022/05/19 01:05:50;;;;;;;58.42;34.58;;;;;;;;;;5028475;28;20047;-87
2022/05/19 01:08:35;;;;;;;57.05;33.97;;;;;;;;;;5043108;28;20053;-88
2022/05/19 01:11:02;;;;;;;55.40;33.85;;;;;;;;;;5046829;28;20094;-88
2022/05/19 01:13:31;;;;;;;54.78;34.03;;;;;;;;;;5027680;28;20071;-88
2022/05/19 01:15:58;;;;;;;55.88;32.65;;;;;;;;;;5030740;28;20036;-88
2022/05/19 01:18:24;;;;;;;60.28;34.33;;;;;;;;;;5028769;28;20048;-88
2022/05/19 01:20:50;;;;;;;58.85;33.85;;;;;;;;;;5031558;28;20045;-88
2022/05/19 01:23:36;;;;;;;58.03;31.83;;;;;;;;;;5028320;28;20051;-87
2022/05/19 01:26:11;;;;;;;63.78;35.90;;;;;;;;;;5045226;28;20453;-88
2022/05/19 01:28:37;;;;;;;63.38;35.35;;;;;;;;;;5027984;28;20428;-88
2022/05/19 01:31:03;;;;;;;64.40;37.08;;;;;;;;;;5029688;28;20044;-87
2022/05/19 01:33:29;;;;;;;66.65;37.25;;;;;;;;;;5045953;28;20044;-89
2022/05/19 01:35:55;;;;;;;62.50;35.55;;;;;;;;;;5044149;28;20045;-89
2022/05/19 01:38:24;;;;;;;60.63;35.55;;;;;;;;;;5029573;28;20036;-89
2022/05/19 01:40:53;;;;;;;63.55;36.42;;;;;;;;;;5028795;28;20072;-89
2022/05/19 01:43:29;;;;;;;61.38;36.05;;;;;;;;;;5043804;28;20488;-88
2022/05/19 01:45:58;;;;;;;63.60;36.92;;;;;;;;;;5044722;28;20131;-88
2022/05/19 01:48:43;;;;;;;65.55;37.95;;;;;;;;;;5028573;28;20487;-88
2022/05/19 01:51:29;;;;;;;63.05;37.78;;;;;;;;;;5045617;28;20043;-88
2022/05/19 01:54:15;;;;;;;60.88;38.50;;;;;;;;;;5051219;28;20469;-88
2022/05/19 01:56:53;;;;;;;61.65;37.95;;;;;;;;;;5046671;28;20032;-89
2022/05/19 01:59:23;;;;;;;59.92;36.30;;;;;;;;;;5026863;28;20033;-89
2022/05/19 02:01:56;;;;;;;63.20;37.38;;;;;;;;;;5028405;28;20120;-89
2022/05/19 02:04:49;;;;;;;70.57;42.33;;;;;;;;;;5062577;28;20032;-88
2022/05/19 02:07:17;;;;;;;66.63;40.05;;;;;;;;;;5030836;28;20531;-89
2022/05/19 02:09:47;;;;;;;67.70;42.40;;;;;;;;;;5029314;28;20182;-89
2022/05/19 02:12:13;;;;;;;67.15;39.20;;;;;;;;;;5026970;28;20048;-89
2022/05/19 02:14:59;;;;;;;69.88;41.42;;;;;;;;;;5028443;28;20032;-88
2022/05/19 02:17:26;;;;;;;63.50;40.03;;;;;;;;;;5047169;28;20033;-88
2022/05/19 02:19:55;;;;;;;65.97;41.63;;;;;;;;;;5026993;28;20036;-89
2022/05/19 02:22:23;;;;;;;69.72;40.58;;;;;;;;;;5028933;28;20502;-88
2022/05/19 02:25:00;;;;;;;68.95;40.60;;;;;;;;;;5026587;28;20082;-88
2022/05/19 02:27:35;;;;;;;63.00;39.47;;;;;;;;;;5045939;28;20518;-89
2022/05/19 02:30:02;;;;;;;72.40;39.72;;;;;;;;;;5063057;28;20058;-89
2022/05/19 02:32:28;;;;;;;77.63;40.70;;;;;;;;;;5027983;28;20480;-87
2022/05/19 02:34:54;;;;;;;68.95;39.67;;;;;;;;;;5045062;28;20029;-89
2022/05/19 02:37:20;;;;;;;73.53;43.25;;;;;;;;;;5026527;28;20135;-88
2022/05/19 02:39:46;;;;;;;74.45;41.63;;;;;;;;;;5028749;28;20036;-88
2022/05/19 02:42:12;;;;;;;72.88;40.60;;;;;;;;;;5028344;28;20045;-88
2022/05/19 02:44:38;;;;;;;70.50;43.38;;;;;;;;;;5029326;28;20039;-88
2022/05/19 02:47:04;;;;;;;70.60;40.97;;;;;;;;;;5045131;28;20051;-88
2022/05/19 02:49:30;;;;;;;63.38;39.20;;;;;;;;;;5028133;28;20079;-88
2022/05/19 02:51:56;;;;;;;70.90;40.70;;;;;;;;;;5029533;28;20033;-88
2022/05/19 02:54:22;;;;;;;69.75;41.70;;;;;;;;;;5028664;28;20036;-88
2022/05/19 02:56:49;;;;;;;71.25;42.35;;;;;;;;;;5037270;28;20408;-87
2022/05/19 02:59:15;;;;;;;74.88;44.40;;;;;;;;;;5035004;28;20041;-88
2022/05/19 03:01:41;;;;;;;67.50;41.25;;;;;;;;;;5018409;28;20070;-89
2022/05/19 03:04:07;;;;;;;65.93;40.63;;;;;;;;;;5034386;28;20124;-88
2022/05/19 03:06:33;;;;;;;70.32;40.20;;;;;;;;;;5017859;28;20087;-88
2022/05/19 03:08:59;;;;;;;67.13;40.58;;;;;;;;;;5017823;28;20408;-88
2022/05/19 03:11:25;;;;;;;68.80;40.78;;;;;;;;;;5018021;28;20086;-88
2022/05/19 03:13:51;;;;;;;66.15;38.72;;;;;;;;;;5017684;28;20041;-87
2022/05/19 03:16:17;;;;;;;69.30;38.65;;;;;;;;;;5034277;28;20044;-87
2022/05/19 03:18:43;;;;;;;66.60;39.97;;;;;;;;;;5034339;28;20400;-88
2022/05/19 03:21:09;;;;;;;71.47;40.45;;;;;;;;;;5034430;28;20045;-88
2022/05/19 03:23:35;;;;;;;69.88;39.63;;;;;;;;;;5017663;28;20041;-88
2022/05/19 03:26:02;;;;;;;69.55;39.38;;;;;;;;;;5018000;28;20070;-87
2022/05/19 03:28:28;;;;;;;69.22;38.35;;;;;;;;;;5017584;28;20049;-88
2022/05/19 03:30:54;;;;;;;73.82;41.40;;;;;;;;;;5017904;28;20048;-87
2022/05/19 03:33:20;;;;;;;72.95;40.08;;;;;;;;;;5021877;28;20037;-88
2022/05/19 03:35:55;;;;;;;74.45;39.35;;;;;;;;;;5021738;28;20496;-87
2022/05/19 03:38:21;;;;;;;76.45;39.08;;;;;;;;;;5022130;28;20047;-90
2022/05/19 03:40:47;;;;;;;72.07;39.88;;;;;;;;;;5021630;28;20049;-89
2022/05/19 03:43:13;;;;;;;67.70;38.30;;;;;;;;;;5021703;28;20507;-88
2022/05/19 03:45:40;;;;;;;69.05;37.97;;;;;;;;;;5038016;28;20041;-88
2022/05/19 03:48:06;;;;;;;69.47;39.22;;;;;;;;;;5021449;28;20144;-88
2022/05/19 03:50:32;;;;;;;78.25;41.28;;;;;;;;;;5021683;28;20041;-88
2022/05/19 03:52:58;;;;;;;74.70;39.90;;;;;;;;;;5021553;28;20389;-87
2022/05/19 03:55:24;;;;;;;69.28;38.15;;;;;;;;;;5021464;28;20059;-88
2022/05/19 03:57:50;;;;;;;70.65;38.78;;;;;;;;;;5021390;28;20052;-88
2022/05/19 04:00:18;;;;;;;68.95;38.92;;;;;;;;;;5021527;28;20083;-86
2022/05/19 04:02:44;;;;;;;77.50;40.63;;;;;;;;;;5021877;28;20051;-89
2022/05/19 04:05:11;;;;;;;69.30;40.72;;;;;;;;;;5021747;28;20053;-88
2022/05/19 04:07:37;;;;;;;72.57;40.80;;;;;;;;;;5037584;28;20516;-87
2022/05/19 04:10:05;;;;;;;68.32;41.35;;;;;;;;;;5021317;28;20052;-88
2022/05/19 04:12:30;;;;;;;73.32;40.97;;;;;;;;;;5021128;28;20037;-89
2022/05/19 04:14:56;;;;;;;69.32;40.15;;;;;;;;;;5021506;28;20447;-88
2022/05/19 04:17:22;;;;;;;68.13;38.70;;;;;;;;;;5021431;28;20041;-89
2022/05/19 04:19:48;;;;;;;79.55;41.10;;;;;;;;;;5037494;28;20044;-88
2022/05/19 04:22:15;;;;;;;73.18;40.38;;;;;;;;;;5021088;28;20041;-88
2022/05/19 04:24:41;;;;;;;74.28;40.85;;;;;;;;;;5021078;28;20091;-87
2022/05/19 04:27:07;;;;;;;75.93;42.08;;;;;;;;;;5020846;28;20068;-88
2022/05/19 04:29:33;;;;;;;71.53;43.35;;;;;;;;;;5020671;28;20128;-88
2022/05/19 04:31:59;;;;;;;77.28;41.88;;;;;;;;;;5020927;28;20040;-87
2022/05/19 04:34:25;;;;;;;79.90;41.80;;;;;;;;;;5020791;28;20075;-88
2022/05/19 04:36:51;;;;;;;76.28;42.50;;;;;;;;;;5020377;28;20037;-88
2022/05/19 04:39:17;;;;;;;73.72;41.42;;;;;;;;;;5020516;28;20079;-88
2022/05/19 04:41:43;;;;;;;79.50;43.97;;;;;;;;;;5020524;28;20433;-87
2022/05/19 04:44:09;;;;;;;75.20;42.42;;;;;;;;;;5020336;28;20051;-88
2022/05/19 04:46:35;;;;;;;80.95;44.40;;;;;;;;;;5020442;28;20083;-88
2022/05/19 04:49:01;;;;;;;79.50;44.50;;;;;;;;;;5036729;28;20037;-87
2022/05/19 04:51:27;;;;;;;72.60;42.00;;;;;;;;;;5020290;28;20044;-88
2022/05/19 04:53:53;;;;;;;74.45;42.55;;;;;;;;;;5020377;28;20048;-87
2022/05/19 04:56:19;;;;;;;72.05;40.88;;;;;;;;;;5019901;28;20381;-87
2022/05/19 04:58:45;;;;;;;73.60;43.50;;;;;;;;;;5020065;28;20059;-86
2022/05/19 05:01:11;;;;;;;62.78;39.67;;;;;;;;;;5019839;28;20036;-87
2022/05/19 05:03:37;;;;;;;62.97;39.15;;;;;;;;;;5019946;28;20488;-86
2022/05/19 05:06:03;;;;;;;61.95;36.92;;;;;;;;;;5019842;28;20037;-86
2022/05/19 05:08:29;;;;;;;64.13;41.70;;;;;;;;;;5019634;28;20060;-87
2022/05/19 05:10:55;;;;;;;56.08;33.97;;;;;;;;;;5019620;28;20037;-89
2022/05/19 05:13:21;;;;;;;61.20;41.63;;;;;;;;;;5019635;28;20386;-85
2022/05/19 05:15:47;;;;;;;64.72;40.60;;;;;;;;;;5036017;28;20045;-84
2022/05/19 05:18:13;;;;;;;54.15;32.67;;;;;;;;;;5019703;28;20044;-86
2022/05/19 05:20:41;;;;;;;56.95;35.67;;;;;;;;;;5019529;28;20411;-84
2022/05/19 05:23:07;;;;;;;65.18;40.03;;;;;;;;;;5019341;28;20436;-85
2022/05/19 05:25:33;;;;;;;59.25;37.17;;;;;;;;;;5019722;28;20074;-83
2022/05/19 05:28:00;;;;;;;59.55;34.58;;;;;;;;;;5019101;28;20045;-84
2022/05/19 05:30:26;;;;;;;61.58;37.35;;;;;;;;;;5035939;28;20511;-83
2022/05/19 05:32:53;;;;;;;57.67;37.40;;;;;;;;;;5019153;28;20033;-84
2022/05/19 05:35:19;;;;;;;61.55;37.08;;;;;;;;;;5035765;28;20062;-82
2022/05/19 05:37:45;;;;;;;64.88;38.25;;;;;;;;;;5019448;28;20064;-86
2022/05/19 05:40:11;;;;;;;57.10;34.97;;;;;;;;;;5037068;28;20045;-84
2022/05/19 05:42:38;;;;;;;59.22;35.97;;;;;;;;;;5020432;28;20045;-83
2022/05/19 05:45:05;;;;;;;60.80;35.63;;;;;;;;;;5020363;28;20094;-83
2022/05/19 05:47:31;;;;;;;56.83;36.10;;;;;;;;;;5019651;28;20361;-84
2022/05/19 05:49:57;;;;;;;53.72;34.95;;;;;;;;;;5018557;28;20047;-84
2022/05/19 05:52:23;;;;;;;56.30;34.78;;;;;;;;;;5018854;28;20366;-85
2022/05/19 05:54:49;;;;;;;51.53;34.03;;;;;;;;;;5018026;28;20037;-85
2022/05/19 05:57:15;;;;;;;53.92;34.08;;;;;;;;;;5018457;28;20037;-84
2022/05/19 05:59:41;;;;;;;49.92;32.75;;;;;;;;;;5018620;28;20381;-86
2022/05/19 06:02:07;;;;;;;41.22;28.40;;;;;;;;;;5018426;28;20041;-84
2022/05/19 06:04:33;;;;;;;39.88;31.23;;;;;;;;;;5018511;28;20037;-83
2022/05/19 06:06:59;;;;;;;37.80;33.83;;;;;;;;;;5018467;28;20045;-87
2022/05/19 06:09:25;;;;;;;36.35;31.58;;;;;;;;;;5034312;28;20049;-87
2022/05/19 06:11:51;;;;;;;32.42;28.17;;;;;;;;;;5019804;28;20063;-86
2022/05/19 06:14:17;;;;;;;32.78;29.27;;;;;;;;;;5053854;28;20051;-81
2022/05/19 06:16:44;;;;;;;31.00;27.73;;;;;;;;;;5054213;28;20407;-88
2022/05/19 06:19:09;;;;;;;28.25;25.25;;;;;;;;;;5034252;28;20816;-88
2022/05/19 06:21:39;;;;;;;25.50;22.90;;;;;;;;;;5034278;28;20091;-88
2022/05/19 06:24:08;;;;;;;27.88;24.95;;;;;;;;;;5033977;28;20127;-86
2022/05/19 06:26:34;;;;;;;24.80;22.17;;;;;;;;;;5034102;28;20389;-86
2022/05/19 06:29:00;;;;;;;25.92;23.35;;;;;;;;;;5034041;28;20085;-83
2022/05/19 06:31:26;;;;;;;23.83;21.50;;;;;;;;;;5033733;28;20105;-85
2022/05/19 06:33:52;;;;;;;23.67;21.27;;;;;;;;;;5028732;28;20037;-86
2022/05/19 06:36:18;;;;;;;23.30;21.00;;;;;;;;;;5033328;28;20399;-85
2022/05/19 06:38:44;;;;;;;21.85;19.63;;;;;;;;;;5033957;28;20039;-85
2022/05/19 06:43:54;;;;;;;21.85;19.52;;;;;;;;;;5045413;28;20045;-88
2022/05/19 06:46:20;;;;;;;19.98;17.88;;;;;;;;;;5033283;28;20071;-88
2022/05/19 06:48:46;;;;;;;18.83;16.90;;;;;;;;;;5032958;28;20618;-84
2022/05/19 06:51:12;;;;;;;19.33;17.27;;;;;;;;;;5034145;28;20037;-78
2022/05/19 06:53:39;;;;;;;17.73;15.93;;;;;;;;;;5036302;28;20032;-85
2022/05/19 06:56:08;;;;;;;18.77;16.52;;;;;;;;;;5036557;28;20041;-88
2022/05/19 06:58:34;;;;;;;18.40;16.50;;;;;;;;;;5037054;28;20502;-83
2022/05/19 07:01:00;;;;;;;19.40;17.42;;;;;;;;;;5053996;28;20074;-86
2022/05/19 07:03:26;;;;;;;17.65;15.85;;;;;;;;;;5036184;28;20033;-80
2022/05/19 07:05:52;;;;;;;17.02;15.32;;;;;;;;;;5053293;28;20480;-83
2022/05/19 07:08:18;;;;;;;18.42;16.35;;;;;;;;;;4999417;28;1021490;-82
2022/05/19 07:10:44;;;;;;;19.90;17.80;;;;;;;;;;5071980;28;20071;-86
2022/05/19 07:13:12;;;;;;;19.00;16.98;;;;;;;;;;5020978;28;20059;-83
2022/05/19 07:15:39;;;;;;;19.23;17.30;;;;;;;;;;5054253;28;20502;-87
2022/05/19 07:18:08;;;;;;;21.48;19.17;;;;;;;;;;5038305;28;20051;-82
2022/05/19 07:20:48;;;;;;;21.52;19.10;;;;;;;;;;5034578;28;20029;-85
2022/05/19 07:23:15;;;;;;;19.70;17.73;;;;;;;;;;5051438;28;20044;-83
2022/05/19 07:25:43;;;;;;;20.65;18.55;;;;;;;;;;5053190;28;20044;-83
2022/05/19 07:28:09;;;;;;;21.95;18.20;;;;;;;;;;5036634;28;20405;-88
2022/05/19 07:30:35;;;;;;;26.27;20.52;;;;;;;;;;5041017;28;20086;-88
2022/05/19 07:33:02;;;;;;;23.50;21.00;;;;;;;;;;5054718;28;20041;-84
2022/05/19 07:35:28;;;;;;;24.70;21.98;;;;;;;;;;5037039;28;20476;-86
2022/05/19 07:37:54;;;;;;;24.13;21.30;;;;;;;;;;5037934;28;20040;-90
2022/05/19 07:40:20;;;;;;;24.08;21.48;;;;;;;;;;5040035;28;20048;-87
2022/05/19 07:42:46;;;;;;;24.30;21.85;;;;;;;;;;5040439;28;20044;-87
2022/05/19 07:45:14;;;;;;;24.50;21.70;;;;;;;;;;5038207;28;20090;-92
2022/05/19 07:47:40;;;;;;;24.02;21.40;;;;;;;;;;5039124;28;20506;-85
2022/05/19 07:50:07;;;;;;;23.38;21.08;;;;;;;;;;5038033;28;20036;-84
2022/05/19 07:52:33;;;;;;;23.92;21.45;;;;;;;;;;5037179;28;20040;-82
2022/05/19 07:54:59;;;;;;;23.65;21.30;;;;;;;;;;5036665;28;20040;-87
2022/05/19 07:57:25;;;;;;;24.40;21.80;;;;;;;;;;5037285;28;20037;-88
2022/05/19 07:59:51;;;;;;;25.13;22.42;;;;;;;;;;5037789;28;20384;-87
2022/05/19 08:02:17;;;;;;;21.90;16.48;;;;;;;;;;5054188;28;20094;-89
2022/05/19 08:04:43;;;;;;;26.35;23.23;;;;;;;;;;5054248;28;20047;-84
2022/05/19 08:07:09;;;;;;;27.23;24.35;;;;;;;;;;5053450;28;20443;-85
2022/05/19 08:15:34;;;;;;;29.00;25.95;;;;;;;;;;5054279;28;20048;-87
2022/05/19 08:17:53;;;;;;;29.30;26.38;;;;;;;;;;5054670;28;20048;-84
2022/05/19 08:20:20;;;;;;;26.65;23.85;;;;;;;;;;5041356;28;20045;-86
2022/05/19 08:22:46;;;;;;;25.17;18.08;;;;;;;;;;5040046;28;20098;-83
2022/05/19 08:25:12;;;;;;;24.45;17.85;;;;;;;;;;5040212;28;20086;-84
2022/05/19 08:27:39;;;;;;;28.67;25.33;;;;;;;;;;5040516;28;20377;-86
2022/05/19 08:30:05;;;;;;;28.48;20.05;;;;;;;;;;5040263;28;20153;-85
2022/05/19 08:32:31;;;;;;;25.67;20.80;;;;;;;;;;5039450;28;20438;-85
2022/05/19 08:34:57;;;;;;;27.17;24.40;;;;;;;;;;5039766;28;20040;-86
2022/05/19 08:37:23;;;;;;;21.77;18.60;;;;;;;;;;5039241;28;20485;-84
2022/05/19 08:39:49;;;;;;;24.45;18.67;;;;;;;;;;5037367;28;20052;-86
2022/05/19 08:42:16;;;;;;;27.92;25.08;;;;;;;;;;5056670;28;20048;-85
2022/05/19 08:44:45;;;;;;;26.27;17.13;;;;;;;;;;5039128;28;20037;-85
2022/05/19 08:47:13;;;;;;;21.83;15.70;;;;;;;;;;5039417;28;20109;-86
2022/05/19 08:49:45;;;;;;;21.77;15.30;;;;;;;;;;5055881;28;20127;-81
2022/05/19 08:52:13;;;;;;;26.85;19.55;;;;;;;;;;5031175;28;20040;-81
2022/05/19 08:54:41;;;;;;;24.55;17.17;;;;;;;;;;5055822;28;20190;-81
2022/05/19 08:57:16;;;;;;;26.92;24.17;;;;;;;;;;5053059;28;20036;-83
2022/05/19 08:59:45;;;;;;;25.95;23.17;;;;;;;;;;5039010;28;20039;-87
2022/05/19 09:02:13;;;;;;;23.50;17.98;;;;;;;;;;5041003;28;20085;-89
2022/05/19 09:04:43;;;;;;;21.20;16.45;;;;;;;;;;5039203;28;20055;-85
2022/05/19 09:10:12;;;;;;;20.60;17.17;;;;;;;;;;5053730;28;20040;-86
2022/05/19 09:12:39;;;;;;;21.65;18.42;;;;;;;;;;5037969;28;20036;-87
2022/05/19 09:15:08;;;;;;;18.15;15.50;;;;;;;;;;5038626;28;20105;-88
2022/05/19 09:17:36;;;;;;;21.23;16.15;;;;;;;;;;5038526;28;20036;-86
2022/05/19 09:20:05;;;;;;;26.27;23.67;;;;;;;;;;5063726;28;20048;-86
2022/05/19 09:22:33;;;;;;;23.88;17.98;;;;;;;;;;5036929;28;20045;-85
2022/05/19 09:25:01;;;;;;;24.80;22.30;;;;;;;;;;5038711;28;20068;-84
2022/05/19 09:27:28;;;;;;;22.40;16.08;;;;;;;;;;5036297;28;20362;-85
2022/05/19 09:29:55;;;;;;;24.15;18.27;;;;;;;;;;5037577;28;20040;-84
2022/05/19 09:32:34;;;;;;;25.05;22.50;;;;;;;;;;5038656;28;20072;-85
2022/05/19 09:35:13;;;;;;;25.63;23.02;;;;;;;;;;5037754;28;20041;-87
2022/05/19 09:37:43;;;;;;;25.40;22.70;;;;;;;;;;5037398;28;20074;-87
2022/05/19 09:40:12;;;;;;;20.35;17.90;;;;;;;;;;5030429;28;20048;-85
2022/05/19 09:42:53;;;;;;;26.42;23.63;;;;;;;;;;5063363;28;20043;-84
2022/05/19 09:45:23;;;;;;;26.00;23.20;;;;;;;;;;5038473;28;20044;-85
2022/05/19 09:47:57;;;;;;;26.73;23.92;;;;;;;;;;5052509;28;20036;-85
2022/05/19 09:50:24;;;;;;;24.58;20.65;;;;;;;;;;5038006;28;20506;-86
2022/05/19 09:52:50;;;;;;;25.38;22.63;;;;;;;;;;5038091;28;20119;-84
2022/05/19 09:55:21;;;;;;;23.85;19.20;;;;;;;;;;5037927;28;20040;-84
2022/05/19 09:57:53;;;;;;;26.15;23.35;;;;;;;;;;5052268;28;20139;-86
2022/05/19 10:00:32;;;;;;;25.92;22.55;;;;;;;;;;5038114;28;20044;-87
2022/05/19 10:02:59;;;;;;;22.50;20.13;;;;;;;;;;5053881;28;20106;-87
2022/05/19 10:05:25;;;;;;;23.15;20.60;;;;;;;;;;5037450;28;20070;-85
2022/05/19 10:07:56;;;;;;;23.48;21.15;;;;;;;;;;5031401;28;20063;-83
2022/05/19 10:10:29;;;;;;;24.83;22.17;;;;;;;;;;5031018;28;20069;-84
2022/05/19 10:13:02;;;;;;;23.23;20.88;;;;;;;;;;5030918;28;20399;-85
2022/05/19 10:15:35;;;;;;;24.17;20.60;;;;;;;;;;5025843;28;20144;-86
2022/05/19 10:18:01;;;;;;;22.02;19.70;;;;;;;;;;5047503;28;20070;-84
2022/05/19 10:20:32;;;;;;;21.08;18.70;;;;;;;;;;5030496;28;20037;-84
2022/05/19 10:23:07;;;;;;;23.60;21.23;;;;;;;;;;5030829;28;20079;-86
2022/05/19 10:25:36;;;;;;;22.33;20.02;;;;;;;;;;5045338;28;20404;-85
2022/05/19 10:31:25;;;;;;;24.95;22.27;;;;;;;;;;5044444;28;20045;-85
2022/05/19 10:34:00;;;;;;;23.23;20.83;;;;;;;;;;5042647;28;20052;-88
2022/05/19 10:36:31;;;;;;;22.77;20.45;;;;;;;;;;5049992;28;20063;-86
2022/05/19 10:39:07;;;;;;;23.10;20.75;;;;;;;;;;5050298;28;20045;-86
2022/05/19 10:41:39;;;;;;;22.75;20.52;;;;;;;;;;5045060;28;20033;-86
2022/05/19 10:44:08;;;;;;;24.20;21.90;;;;;;;;;;5030368;28;20045;-87
2022/05/19 10:46:48;;;;;;;24.73;22.38;;;;;;;;;;5029400;28;20043;-86
2022/05/19 10:49:32;;;;;;;27.00;24.23;;;;;;;;;;5041171;28;20041;-86
2022/05/19 10:51:58;;;;;;;24.35;21.75;;;;;;;;;;5049411;28;20111;-86
2022/05/19 10:54:24;;;;;;;24.75;22.38;;;;;;;;;;5030415;28;20547;-87
2022/05/19 10:56:52;;;;;;;28.27;25.58;;;;;;;;;;5031683;28;20028;-84
2022/05/19 10:59:38;;;;;;;28.45;25.65;;;;;;;;;;5029955;28;20051;-86
2022/05/19 11:02:22;;;;;;;26.27;23.75;;;;;;;;;;5050036;28;20534;-84
2022/05/19 11:05:00;;;;;;;27.67;24.90;;;;;;;;;;5045680;28;20036;-90
2022/05/19 11:07:26;;;;;;;27.00;24.23;;;;;;;;;;5058429;28;20058;-82
2022/05/19 11:10:02;;;;;;;24.48;21.88;;;;;;;;;;5033606;28;20044;-85
2022/05/19 11:12:32;;;;;;;26.38;23.88;;;;;;;;;;5064582;28;20471;-85
2022/05/19 11:15:12;;;;;;;25.60;23.17;;;;;;;;;;5050349;28;20284;-84
2022/05/19 11:17:44;;;;;;;25.77;23.17;;;;;;;;;;5048995;28;20040;-85
2022/05/19 11:20:23;;;;;;;27.08;24.17;;;;;;;;;;5048624;28;20506;-84
2022/05/19 11:22:52;;;;;;;28.00;25.27;;;;;;;;;;5048511;28;20534;-85
2022/05/19 11:28:25;;;;;;;25.67;23.17;;;;;;;;;;5049915;28;20072;-86
2022/05/19 11:30:55;;;;;;;25.77;23.23;;;;;;;;;;5067228;28;20037;-85
2022/05/19 11:33:30;;;;;;;25.40;22.92;;;;;;;;;;5051748;28;20383;-87
2022/05/19 11:36:02;;;;;;;25.05;22.50;;;;;;;;;;5051867;28;20039;-85
2022/05/19 11:38:47;;;;;;;26.67;23.98;;;;;;;;;;5018135;28;20076;-86
2022/05/19 11:41:27;;;;;;;25.95;23.30;;;;;;;;;;5067703;28;20041;-83
2022/05/19 11:43:53;;;;;;;23.15;20.90;;;;;;;;;;5049973;28;20041;-87
2022/05/19 11:46:25;;;;;;;25.05;21.98;;;;;;;;;;5066651;28;20056;-86
2022/05/19 11:55:12;;;;;;;18.60;16.20;;;;;;;;;;5036601;28;20041;-83
2022/05/19 11:58:03;;;;;;;18.15;16.38;;;;;;;;;;5053743;28;20044;-84
2022/05/19 12:00:30;;;;;;;18.73;16.88;;;;;;;;;;5036985;28;20053;-84
2022/05/19 12:03:15;;;;;;;18.02;16.38;;;;;;;;;;5053654;28;20095;-83
2022/05/19 12:05:58;;;;;;;15.90;14.20;;;;;;;;;;5053610;28;20041;-83
2022/05/19 12:08:37;;;;;;;15.57;14.02;;;;;;;;;;5053013;28;20049;-83
2022/05/19 12:11:29;;;;;;;13.63;12.23;;;;;;;;;;5020449;28;20049;-85
2022/05/19 12:14:13;;;;;;;17.58;15.77;;;;;;;;;;5028815;28;20045;-84
2022/05/19 12:16:45;;;;;;;15.23;13.63;;;;;;;;;;5053409;28;20045;-86
2022/05/19 12:19:29;;;;;;;15.20;13.55;;;;;;;;;;5036744;28;20557;-85
2022/05/19 12:21:55;;;;;;;15.60;14.10;;;;;;;;;;5069551;28;20047;-84
2022/05/19 12:24:26;;;;;;;15.68;13.88;;;;;;;;;;5069940;28;20106;-83
2022/05/19 12:26:52;;;;;;;13.07;11.65;;;;;;;;;;5053629;28;20087;-92
2022/05/19 12:29:35;;;;;;;13.23;11.90;;;;;;;;;;5057534;28;20037;-86
2022/05/19 12:32:10;;;;;;;12.82;11.05;;;;;;;;;;5041413;28;20040;-85
2022/05/19 12:34:36;;;;;;;12.75;10.50;;;;;;;;;;5041156;28;20048;-84
2022/05/19 12:37:07;;;;;;;10.68;9.52;;;;;;;;;;5057793;28;20476;-84
2022/05/19 12:39:47;;;;;;;9.82;8.88;;;;;;;;;;5041228;28;20040;-84
2022/05/19 12:42:13;;;;;;;9.05;8.15;;;;;;;;;;5041310;28;20036;-83
2022/05/19 12:44:46;;;;;;;9.77;8.85;;;;;;;;;;5041207;28;20046;-88
2022/05/19 12:47:22;;;;;;;10.00;7.43;;;;;;;;;;5041266;28;20041;-86
2022/05/19 12:50:08;;;;;;;7.43;6.72;;;;;;;;;;5057702;28;20599;-85
2022/05/19 12:52:53;;;;;;;7.70;6.75;;;;;;;;;;5054521;28;20086;-84
2022/05/19 12:55:22;;;;;;;7.03;6.28;;;;;;;;;;5036590;28;20047;-88
2022/05/19 12:57:49;;;;;;;9.57;7.22;;;;;;;;;;5036571;28;20078;-88
2022/05/19 13:00:19;;;;;;;7.85;6.50;;;;;;;;;;5036471;28;20044;-87
2022/05/19 13:02:51;;;;;;;7.68;6.97;;;;;;;;;;5069611;28;20483;-88
2022/05/19 13:05:21;;;;;;;8.23;7.43;;;;;;;;;;5036771;28;20056;-90
2022/05/19 13:07:58;;;;;;;6.70;5.57;;;;;;;;;;5037283;28;20487;-91
2022/05/19 13:10:25;;;;;;;9.35;7.38;;;;;;;;;;5036702;28;20399;-87
2022/05/19 13:13:10;;;;;;;9.02;8.18;;;;;;;;;;5036789;28;20040;-86
2022/05/19 13:15:57;;;;;;;8.88;7.53;;;;;;;;;;5036718;28;20377;-88
2022/05/19 13:18:28;;;;;;;8.45;7.63;;;;;;;;;;5025882;28;20616;-87
2022/05/19 13:21:04;;;;;;;9.55;8.43;;;;;;;;;;5037119;28;20170;-91
2022/05/19 13:23:31;;;;;;;10.05;9.00;;;;;;;;;;5036707;28;20048;-88
2022/05/19 13:26:15;;;;;;;15.15;11.73;;;;;;;;;;5036050;28;20090;-83
2022/05/19 13:31:48;;;;;;;11.85;10.05;;;;;;;;;;5052086;28;20052;-80
2022/05/19 13:34:16;;;;;;;11.00;9.10;;;;;;;;;;5035802;28;20563;-80
2022/05/19 13:36:42;;;;;;;8.75;7.95;;;;;;;;;;5051416;28;20043;-78
2022/05/19 13:39:16;;;;;;;8.15;7.35;;;;;;;;;;5034970;28;20451;-85
2022/05/19 13:41:43;;;;;;;6.03;5.15;;;;;;;;;;5034326;28;20135;-78
2022/05/19 13:44:10;;;;;;;5.13;4.30;;;;;;;;;;5034893;28;20040;-84
2022/05/19 13:46:38;;;;;;;5.85;4.15;;;;;;;;;;5035499;28;20044;-80
2022/05/19 13:49:06;;;;;;;4.93;3.08;;;;;;;;;;5035105;28;20086;-83
2022/05/19 13:51:32;;;;;;;5.38;3.92;;;;;;;;;;5035180;28;20048;-83
2022/05/19 13:54:00;;;;;;;3.97;3.13;;;;;;;;;;5035410;28;20492;-87
2022/05/19 13:56:36;;;;;;;5.85;3.95;;;;;;;;;;5035411;28;20075;-89
2022/05/19 13:59:02;;;;;;;7.28;3.13;;;;;;;;;;5035391;28;20829;-82
2022/05/19 14:01:30;;;;;;;5.07;4.00;;;;;;;;;;5035093;28;20045;-83
2022/05/19 14:03:57;;;;;;;6.57;2.70;;;;;;;;;;5034959;28;20420;-80
2022/05/19 14:06:25;;;;;;;6.53;4.07;;;;;;;;;;5051645;28;20048;-81
2022/05/19 14:08:51;;;;;;;4.63;2.20;;;;;;;;;;5067290;28;20049;-79
2022/05/19 14:11:19;;;;;;;5.47;3.05;;;;;;;;;;5051334;28;20044;-84
2022/05/19 14:13:45;;;;;;;6.90;3.50;;;;;;;;;;5034285;28;20048;-84
2022/05/19 14:16:13;;;;;;;3.88;2.45;;;;;;;;;;5035413;28;20098;-83
2022/05/19 14:18:41;;;;;;;7.03;4.55;;;;;;;;;;5034799;28;20075;-83
2022/05/19 14:21:24;;;;;;;5.15;2.60;;;;;;;;;;5053784;28;20051;-86
2022/05/19 14:23:53;;;;;;;4.40;2.58;;;;;;;;;;5037228;28;20414;-86
2022/05/19 14:26:24;;;;;;;4.05;2.88;;;;;;;;;;5051528;28;20094;-84
2022/05/19 14:28:51;;;;;;;6.60;4.40;;;;;;;;;;5051579;28;20076;-82
2022/05/19 14:31:19;;;;;;;5.70;2.97;;;;;;;;;;5053823;28;20277;-84
2022/05/19 14:34:04;;;;;;;7.80;4.07;;;;;;;;;;5036621;28;20482;-90
2022/05/19 14:36:41;;;;;;;3.80;2.97;;;;;;;;;;5053596;28;20708;-87
2022/05/19 14:39:16;;;;;;;6.10;3.42;;;;;;;;;;5037462;28;20568;-85
2022/05/19 14:44:28;;;;;;;5.22;3.05;;;;;;;;;;5052401;28;20403;-89
2022/05/19 14:47:03;;;;;;;5.53;3.42;;;;;;;;;;5040425;28;20543;-89
2022/05/19 14:49:32;;;;;;;4.57;2.95;;;;;;;;;;5039491;28;20099;-88
2022/05/19 14:52:01;;;;;;;4.85;3.25;;;;;;;;;;5039612;28;20028;-88
2022/05/19 14:54:30;;;;;;;5.35;3.40;;;;;;;;;;5038338;28;20123;-88
2022/05/19 14:57:01;;;;;;;5.90;3.92;;;;;;;;;;5053077;28;20496;-86
2022/05/19 14:59:31;;;;;;;6.85;3.50;;;;;;;;;;5037440;28;20075;-87
2022/05/19 15:01:58;;;;;;;4.80;4.18;;;;;;;;;;5037145;28;20040;-88
2022/05/19 15:04:24;;;;;;;6.05;3.90;;;;;;;;;;5054557;28;20392;-86